sensor_id;sensor_type;location;lat;lon;timestamp;pressure;altitude;pressure_sealevel;temperature;humidity
54453;BME280;40363;52.270;10.546;2022-12-17T00:01:41;78847.50;;;-147.06;95.21
54453;BME280;40363;52.270;10.546;2022-12-17T00:04:25;78861.91;;;-147.06;94.52
54453;BME280;40363;52.270;10.546;2022-12-17T00:07:10;78863.94;;;-147.06;94.76
54453;BME280;40363;52.270;10.546;2022-12-17T00:09:54;78857.78;;;-147.06;95.11
54453;BME280;40363;52.270;10.546;2022-12-17T00:12:38;78861.91;;;-147.06;94.65
54453;BME280;40363;52.270;10.546;2022-12-17T00:15:22;78868.06;;;-147.06;94.75
54453;BME280;40363;52.270;10.546;2022-12-17T00:18:06;78870.13;;;-147.06;94.72
54453;BME280;40363;52.270;10.546;2022-12-17T00:20:50;78870.13;;;-147.06;95.39
54453;BME280;40363;52.270;10.546;2022-12-17T00:23:36;78868.06;;;-147.06;95.01
54453;BME280;40363;52.270;10.546;2022-12-17T00:26:20;78874.25;;;-147.06;94.74
54453;BME280;40363;52.270;10.546;2022-12-17T00:29:04;78890.69;;;-147.06;94.90
54453;BME280;40363;52.270;10.546;2022-12-17T00:31:48;78907.16;;;-147.06;94.91
54453;BME280;40363;52.270;10.546;2022-12-17T00:34:32;78923.59;;;-147.06;95.71
54453;BME280;40363;52.270;10.546;2022-12-17T00:37:16;78921.53;;;-147.06;95.77
54453;BME280;40363;52.270;10.546;2022-12-17T00:40:01;78917.44;;;-147.06;95.62
54453;BME280;40363;52.270;10.546;2022-12-17T00:42:45;78929.75;;;-147.06;95.86
54453;BME280;40363;52.270;10.546;2022-12-17T00:45:29;78925.66;;;-147.06;95.88
54453;BME280;40363;52.270;10.546;2022-12-17T00:48:13;78931.81;;;-147.06;95.87
54453;BME280;40363;52.270;10.546;2022-12-17T00:50:58;78911.25;;;-147.06;95.70
54453;BME280;40363;52.270;10.546;2022-12-17T00:53:41;78907.16;;;-147.06;95.79
54453;BME280;40363;52.270;10.546;2022-12-17T00:56:27;78905.09;;;-147.06;95.66
54453;BME280;40363;52.270;10.546;2022-12-17T00:59:11;78898.91;;;-147.06;95.27
54453;BME280;40363;52.270;10.546;2022-12-17T01:01:54;78917.44;;;-147.06;95.06
54453;BME280;40363;52.270;10.546;2022-12-17T01:04:38;78931.81;;;-147.06;94.99
54453;BME280;40363;52.270;10.546;2022-12-17T01:07:22;78929.75;;;-147.06;95.33
54453;BME280;40363;52.270;10.546;2022-12-17T01:10:06;78931.81;;;-147.06;95.55
54453;BME280;40363;52.270;10.546;2022-12-17T01:12:52;78944.16;;;-147.06;95.33
54453;BME280;40363;52.270;10.546;2022-12-17T01:15:36;78942.09;;;-147.06;95.75
54453;BME280;40363;52.270;10.546;2022-12-17T01:18:34;78935.94;;;-147.06;95.47
54453;BME280;40363;52.270;10.546;2022-12-17T01:21:18;78938.00;;;-147.06;95.50
54453;BME280;40363;52.270;10.546;2022-12-17T01:24:02;78940.03;;;-147.06;95.34
54453;BME280;40363;52.270;10.546;2022-12-17T01:26:46;78942.09;;;-147.06;95.70
54453;BME280;40363;52.270;10.546;2022-12-17T01:29:32;78927.72;;;-147.06;95.51
54453;BME280;40363;52.270;10.546;2022-12-17T01:32:18;78921.53;;;-147.06;95.25
54453;BME280;40363;52.270;10.546;2022-12-17T01:35:02;78935.94;;;-147.06;94.83
54453;BME280;40363;52.270;10.546;2022-12-17T01:37:46;78958.56;;;-147.06;95.23
54453;BME280;40363;52.270;10.546;2022-12-17T01:40:29;78940.03;;;-147.06;95.69
54453;BME280;40363;52.270;10.546;2022-12-17T01:43:29;78938.00;;;-147.06;95.58
54453;BME280;40363;52.270;10.546;2022-12-17T01:46:14;78940.03;;;-147.06;95.09
54453;BME280;40363;52.270;10.546;2022-12-17T01:48:58;78948.28;;;-147.06;94.94
54453;BME280;40363;52.270;10.546;2022-12-17T01:51:42;78960.63;;;-147.06;95.12
54453;BME280;40363;52.270;10.546;2022-12-17T01:54:26;78952.38;;;-147.06;95.25
54453;BME280;40363;52.270;10.546;2022-12-17T01:57:10;78956.50;;;-147.06;94.88
54453;BME280;40363;52.270;10.546;2022-12-17T01:59:54;78964.72;;;-147.06;94.77
54453;BME280;40363;52.270;10.546;2022-12-17T02:02:41;78968.84;;;-147.06;95.04
54453;BME280;40363;52.270;10.546;2022-12-17T02:05:26;78964.72;;;-147.06;95.09
54453;BME280;40363;52.270;10.546;2022-12-17T02:08:15;78960.63;;;-147.06;95.22
54453;BME280;40363;52.270;10.546;2022-12-17T02:11:04;78960.63;;;-147.06;94.94
54453;BME280;40363;52.270;10.546;2022-12-17T02:13:55;78956.50;;;-147.06;95.24
54453;BME280;40363;52.270;10.546;2022-12-17T02:16:42;78966.78;;;-147.06;95.21
54453;BME280;40363;52.270;10.546;2022-12-17T02:19:38;78981.19;;;-147.06;94.97
54453;BME280;40363;52.270;10.546;2022-12-17T02:22:26;78983.25;;;-147.06;95.04
54453;BME280;40363;52.270;10.546;2022-12-17T02:25:17;78985.28;;;-147.06;95.82
54453;BME280;40363;52.270;10.546;2022-12-17T02:28:06;78989.41;;;-147.06;95.75
54453;BME280;40363;52.270;10.546;2022-12-17T02:30:50;78989.41;;;-147.06;95.56
54453;BME280;40363;52.270;10.546;2022-12-17T02:33:35;78997.63;;;-147.06;95.59
54453;BME280;40363;52.270;10.546;2022-12-17T02:36:19;78997.63;;;-147.06;95.47
54453;BME280;40363;52.270;10.546;2022-12-17T02:39:03;78993.53;;;-147.06;95.79
54453;BME280;40363;52.270;10.546;2022-12-17T02:41:48;78981.19;;;-147.06;95.79
54453;BME280;40363;52.270;10.546;2022-12-17T02:44:43;78979.13;;;-147.06;95.71
54453;BME280;40363;52.270;10.546;2022-12-17T02:47:27;78975.00;;;-147.06;95.26
54453;BME280;40363;52.270;10.546;2022-12-17T02:50:11;78970.91;;;-147.06;95.07
54453;BME280;40363;52.270;10.546;2022-12-17T02:52:57;78977.06;;;-147.06;95.28
54453;BME280;40363;52.270;10.546;2022-12-17T02:55:41;78985.28;;;-147.06;95.53
54453;BME280;40363;52.270;10.546;2022-12-17T02:58:25;78989.41;;;-147.06;95.47
54453;BME280;40363;52.270;10.546;2022-12-17T03:01:11;78997.63;;;-147.06;95.35
54453;BME280;40363;52.270;10.546;2022-12-17T03:03:54;79003.81;;;-147.06;95.73
54453;BME280;40363;52.270;10.546;2022-12-17T03:06:38;78995.56;;;-147.06;95.74
54453;BME280;40363;52.270;10.546;2022-12-17T03:09:22;79009.97;;;-147.06;96.09
54453;BME280;40363;52.270;10.546;2022-12-17T03:12:06;79005.84;;;-147.06;96.00
54453;BME280;40363;52.270;10.546;2022-12-17T03:14:50;79003.81;;;-147.06;95.64
54453;BME280;40363;52.270;10.546;2022-12-17T03:17:35;79024.38;;;-147.06;95.88
54453;BME280;40363;52.270;10.546;2022-12-17T03:20:19;79014.09;;;-147.06;96.17
54453;BME280;40363;52.270;10.546;2022-12-17T03:23:04;79018.19;;;-147.06;96.04
54453;BME280;40363;52.270;10.546;2022-12-17T03:25:48;79018.19;;;-147.06;95.59
54453;BME280;40363;52.270;10.546;2022-12-17T03:28:31;79024.38;;;-147.06;95.69
54453;BME280;40363;52.270;10.546;2022-12-17T03:31:15;79026.44;;;-147.06;95.65
54453;BME280;40363;52.270;10.546;2022-12-17T03:34:00;79032.59;;;-147.06;95.79
54453;BME280;40363;52.270;10.546;2022-12-17T03:36:44;79030.53;;;-147.06;96.52
54453;BME280;40363;52.270;10.546;2022-12-17T03:39:28;79026.44;;;-147.06;95.77
54453;BME280;40363;52.270;10.546;2022-12-17T03:42:12;79030.53;;;-147.06;96.15
54453;BME280;40363;52.270;10.546;2022-12-17T03:44:56;79018.19;;;-147.06;96.25
54453;BME280;40363;52.270;10.546;2022-12-17T03:47:40;79018.19;;;-147.06;96.25
54453;BME280;40363;52.270;10.546;2022-12-17T03:50:33;79009.97;;;-147.06;95.72
54453;BME280;40363;52.270;10.546;2022-12-17T03:53:17;79014.09;;;-147.06;95.99
54453;BME280;40363;52.270;10.546;2022-12-17T03:56:01;79018.19;;;-147.06;96.11
54453;BME280;40363;52.270;10.546;2022-12-17T03:58:45;79012.03;;;-147.06;95.84
54453;BME280;40363;52.270;10.546;2022-12-17T04:01:29;79026.44;;;-147.06;95.67
54453;BME280;40363;52.270;10.546;2022-12-17T04:04:13;79030.53;;;-147.06;95.77
54453;BME280;40363;52.270;10.546;2022-12-17T04:06:59;79030.53;;;-147.06;96.12
54453;BME280;40363;52.270;10.546;2022-12-17T04:09:42;79022.31;;;-147.06;95.75
54453;BME280;40363;52.270;10.546;2022-12-17T04:12:27;79020.25;;;-147.06;95.50
54453;BME280;40363;52.270;10.546;2022-12-17T04:15:16;79042.88;;;-147.06;95.52
54453;BME280;40363;52.270;10.546;2022-12-17T04:18:00;79047.00;;;-147.06;96.05
54453;BME280;40363;52.270;10.546;2022-12-17T04:20:46;79042.88;;;-147.06;96.32
54453;BME280;40363;52.270;10.546;2022-12-17T04:23:31;79044.94;;;-147.06;96.43
54453;BME280;40363;52.270;10.546;2022-12-17T04:26:15;79059.34;;;-147.06;96.20
54453;BME280;40363;52.270;10.546;2022-12-17T04:28:59;79071.69;;;-147.06;97.01
54453;BME280;40363;52.270;10.546;2022-12-17T04:31:43;79055.22;;;-147.06;96.87
54453;BME280;40363;52.270;10.546;2022-12-17T04:34:27;79049.06;;;-147.06;96.46
54453;BME280;40363;52.270;10.546;2022-12-17T04:37:11;79047.00;;;-147.06;96.27
54453;BME280;40363;52.270;10.546;2022-12-17T04:39:56;79049.06;;;-147.06;95.84
54453;BME280;40363;52.270;10.546;2022-12-17T04:42:40;79047.00;;;-147.06;96.12
54453;BME280;40363;52.270;10.546;2022-12-17T04:45:24;79040.81;;;-147.06;95.45
54453;BME280;40363;52.270;10.546;2022-12-17T04:48:08;79026.44;;;-147.06;95.19
54453;BME280;40363;52.270;10.546;2022-12-17T04:50:53;79044.94;;;-147.06;94.91
54453;BME280;40363;52.270;10.546;2022-12-17T04:53:37;79061.41;;;-147.06;95.69
54453;BME280;40363;52.270;10.546;2022-12-17T04:56:22;79067.56;;;-147.06;96.19
54453;BME280;40363;52.270;10.546;2022-12-17T04:59:06;79061.41;;;-147.06;96.17
54453;BME280;40363;52.270;10.546;2022-12-17T05:01:50;79063.44;;;-147.06;96.15
54453;BME280;40363;52.270;10.546;2022-12-17T05:04:34;79067.56;;;-147.06;96.47
54453;BME280;40363;52.270;10.546;2022-12-17T05:07:18;79069.63;;;-147.06;95.99
54453;BME280;40363;52.270;10.546;2022-12-17T05:10:02;79073.72;;;-147.06;96.04
54453;BME280;40363;52.270;10.546;2022-12-17T05:12:44;79079.91;;;-147.06;96.26
54453;BME280;40363;52.270;10.546;2022-12-17T05:15:28;79063.44;;;-147.06;96.01
54453;BME280;40363;52.270;10.546;2022-12-17T05:18:11;79063.44;;;-147.06;95.87
54453;BME280;40363;52.270;10.546;2022-12-17T05:20:55;79063.44;;;-147.06;95.64
54453;BME280;40363;52.270;10.546;2022-12-17T05:23:39;79069.63;;;-147.06;95.82
54453;BME280;40363;52.270;10.546;2022-12-17T05:26:23;79069.63;;;-147.06;96.08
54453;BME280;40363;52.270;10.546;2022-12-17T05:29:09;79065.50;;;-147.06;95.97
54453;BME280;40363;52.270;10.546;2022-12-17T05:31:53;79077.84;;;-147.06;96.20
54453;BME280;40363;52.270;10.546;2022-12-17T05:34:37;79075.78;;;-147.06;96.29
54453;BME280;40363;52.270;10.546;2022-12-17T05:37:21;79067.56;;;-147.06;96.70
54453;BME280;40363;52.270;10.546;2022-12-17T05:40:05;79065.50;;;-147.06;96.00
54453;BME280;40363;52.270;10.546;2022-12-17T05:42:53;79055.22;;;-147.06;95.79
54453;BME280;40363;52.270;10.546;2022-12-17T05:45:38;79051.09;;;-147.06;95.43
54453;BME280;40363;52.270;10.546;2022-12-17T05:48:22;79051.09;;;-147.06;95.53
54453;BME280;40363;52.270;10.546;2022-12-17T05:51:06;79067.56;;;-147.06;95.78
54453;BME280;40363;52.270;10.546;2022-12-17T05:53:50;79079.91;;;-147.06;96.09
54453;BME280;40363;52.270;10.546;2022-12-17T05:56:48;79084.00;;;-147.06;96.11
54453;BME280;40363;52.270;10.546;2022-12-17T05:59:32;79071.69;;;-147.06;95.57
54453;BME280;40363;52.270;10.546;2022-12-17T06:02:18;79073.72;;;-147.06;95.44
54453;BME280;40363;52.270;10.546;2022-12-17T06:05:02;79063.44;;;-147.06;95.14
54453;BME280;40363;52.270;10.546;2022-12-17T06:07:46;79061.41;;;-147.06;94.98
54453;BME280;40363;52.270;10.546;2022-12-17T06:10:29;79059.34;;;-147.06;94.82
54453;BME280;40363;52.270;10.546;2022-12-17T06:13:13;79051.09;;;-147.06;94.95
54453;BME280;40363;52.270;10.546;2022-12-17T06:15:57;79044.94;;;-147.06;94.56
54453;BME280;40363;52.270;10.546;2022-12-17T06:18:42;79042.88;;;-147.06;94.27
54453;BME280;40363;52.270;10.546;2022-12-17T06:21:26;79044.94;;;-147.06;94.29
54453;BME280;40363;52.270;10.546;2022-12-17T06:24:10;79047.00;;;-147.06;93.83
54453;BME280;40363;52.270;10.546;2022-12-17T06:26:54;79053.16;;;-147.06;93.98
54453;BME280;40363;52.270;10.546;2022-12-17T06:29:38;79051.09;;;-147.06;93.58
54453;BME280;40363;52.270;10.546;2022-12-17T06:32:22;79049.06;;;-147.06;93.44
54453;BME280;40363;52.270;10.546;2022-12-17T06:35:07;79055.22;;;-147.06;92.88
54453;BME280;40363;52.270;10.546;2022-12-17T06:37:56;79051.09;;;-147.06;92.88
54453;BME280;40363;52.270;10.546;2022-12-17T06:40:40;79053.16;;;-147.06;92.79
54453;BME280;40363;52.270;10.546;2022-12-17T06:43:24;79047.00;;;-147.06;92.67
54453;BME280;40363;52.270;10.546;2022-12-17T06:46:08;79051.09;;;-147.06;92.23
54453;BME280;40363;52.270;10.546;2022-12-17T06:48:52;79055.22;;;-147.06;91.92
54453;BME280;40363;52.270;10.546;2022-12-17T06:51:38;79059.34;;;-147.06;91.70
54453;BME280;40363;52.270;10.546;2022-12-17T06:54:22;79053.16;;;-147.06;91.73
54453;BME280;40363;52.270;10.546;2022-12-17T06:57:06;79049.06;;;-147.06;91.55
54453;BME280;40363;52.270;10.546;2022-12-17T06:59:50;79051.09;;;-147.06;90.92
54453;BME280;40363;52.270;10.546;2022-12-17T07:02:34;79051.09;;;-147.06;90.57
54453;BME280;40363;52.270;10.546;2022-12-17T07:05:18;79067.56;;;-147.06;89.94
54453;BME280;40363;52.270;10.546;2022-12-17T07:08:03;79069.63;;;-147.06;90.32
54453;BME280;40363;52.270;10.546;2022-12-17T07:10:47;79069.63;;;-147.06;90.89
54453;BME280;40363;52.270;10.546;2022-12-17T07:13:31;79084.00;;;-147.06;91.42
54453;BME280;40363;52.270;10.546;2022-12-17T07:16:15;79100.47;;;-147.06;92.03
54453;BME280;40363;52.270;10.546;2022-12-17T07:18:59;79100.47;;;-147.06;92.17
54453;BME280;40363;52.270;10.546;2022-12-17T07:21:51;79098.41;;;-147.06;91.89
54453;BME280;40363;52.270;10.546;2022-12-17T07:24:36;79106.63;;;-147.06;92.21
54453;BME280;40363;52.270;10.546;2022-12-17T07:27:25;79112.81;;;-147.06;92.96
54453;BME280;40363;52.270;10.546;2022-12-17T07:30:09;79114.88;;;-147.06;92.80
54453;BME280;40363;52.270;10.546;2022-12-17T07:32:57;79116.91;;;-147.06;93.10
54453;BME280;40363;52.270;10.546;2022-12-17T07:35:41;79110.75;;;-147.06;92.99
54453;BME280;40363;52.270;10.546;2022-12-17T07:38:25;79114.88;;;-147.06;93.17
54453;BME280;40363;52.270;10.546;2022-12-17T07:41:10;79131.31;;;-147.06;93.61
54453;BME280;40363;52.270;10.546;2022-12-17T07:43:54;79125.16;;;-147.06;94.04
54453;BME280;40363;52.270;10.546;2022-12-17T07:46:38;79127.22;;;-147.06;93.46
54453;BME280;40363;52.270;10.546;2022-12-17T07:49:22;79135.44;;;-147.06;93.49
54453;BME280;40363;52.270;10.546;2022-12-17T07:52:06;79129.25;;;-147.06;93.50
54453;BME280;40363;52.270;10.546;2022-12-17T07:54:50;79127.22;;;-147.06;93.17
54453;BME280;40363;52.270;10.546;2022-12-17T07:57:35;79131.31;;;-147.06;93.09
54453;BME280;40363;52.270;10.546;2022-12-17T08:00:19;79158.06;;;-147.06;93.41
54453;BME280;40363;52.270;10.546;2022-12-17T08:03:12;79166.28;;;-147.06;93.67
54453;BME280;40363;52.270;10.546;2022-12-17T08:05:56;79158.06;;;-147.06;93.71
54453;BME280;40363;52.270;10.546;2022-12-17T08:08:39;79153.94;;;-147.06;93.81
54453;BME280;40363;52.270;10.546;2022-12-17T08:11:23;79149.84;;;-147.06;93.47
54453;BME280;40363;52.270;10.546;2022-12-17T08:14:09;79162.16;;;-147.06;93.81
54453;BME280;40363;52.270;10.546;2022-12-17T08:16:52;79174.50;;;-147.06;94.41
54453;BME280;40363;52.270;10.546;2022-12-17T08:19:36;79164.22;;;-147.06;94.44
54453;BME280;40363;52.270;10.546;2022-12-17T08:22:20;79153.94;;;-147.06;94.64
54453;BME280;40363;52.270;10.546;2022-12-17T08:25:04;79147.78;;;-147.06;93.74
54453;BME280;40363;52.270;10.546;2022-12-17T08:27:53;79153.94;;;-147.06;93.29
54453;BME280;40363;52.270;10.546;2022-12-17T08:30:38;79151.88;;;-147.06;93.51
54453;BME280;40363;52.270;10.546;2022-12-17T08:33:22;79133.38;;;-147.06;93.26
54453;BME280;40363;52.270;10.546;2022-12-17T08:36:07;79135.44;;;-147.06;92.88
54453;BME280;40363;52.270;10.546;2022-12-17T08:38:51;79110.75;;;-147.06;92.52
54453;BME280;40363;52.270;10.546;2022-12-17T08:41:35;79116.91;;;-147.06;92.98
54453;BME280;40363;52.270;10.546;2022-12-17T08:44:19;79098.41;;;-147.06;92.53
54453;BME280;40363;52.270;10.546;2022-12-17T08:47:04;79088.13;;;-147.06;92.18
54453;BME280;40363;52.270;10.546;2022-12-17T08:49:47;79098.41;;;-147.06;91.61
54453;BME280;40363;52.270;10.546;2022-12-17T08:52:31;79084.00;;;-147.06;91.45
54453;BME280;40363;52.270;10.546;2022-12-17T08:55:15;79084.00;;;-147.06;91.10
54453;BME280;40363;52.270;10.546;2022-12-17T08:57:59;79069.63;;;-147.06;90.57
54453;BME280;40363;52.270;10.546;2022-12-17T09:00:43;79067.56;;;-147.06;90.76
54453;BME280;40363;52.270;10.546;2022-12-17T09:03:29;79057.28;;;-147.06;89.89
54453;BME280;40363;52.270;10.546;2022-12-17T09:06:13;79044.94;;;-147.06;89.00
54453;BME280;40363;52.270;10.546;2022-12-17T09:08:57;79044.94;;;-147.06;87.79
54453;BME280;40363;52.270;10.546;2022-12-17T09:11:41;79038.78;;;-147.06;87.19
54453;BME280;40363;52.270;10.546;2022-12-17T09:14:25;79022.31;;;-147.06;86.97
54453;BME280;40363;52.270;10.546;2022-12-17T09:17:09;79022.31;;;-147.06;85.81
54453;BME280;40363;52.270;10.546;2022-12-17T09:19:54;79026.44;;;-147.06;84.91
54453;BME280;40363;52.270;10.546;2022-12-17T09:22:38;79022.31;;;-147.06;84.52
54453;BME280;40363;52.270;10.546;2022-12-17T09:25:22;79026.44;;;-147.06;84.48
54453;BME280;40363;52.270;10.546;2022-12-17T09:28:06;79022.31;;;-147.06;84.37
54453;BME280;40363;52.270;10.546;2022-12-17T09:30:50;79024.38;;;-147.06;83.94
54453;BME280;40363;52.270;10.546;2022-12-17T09:33:34;78999.69;;;-147.06;83.81
54453;BME280;40363;52.270;10.546;2022-12-17T09:36:19;78993.53;;;-147.06;83.56
54453;BME280;40363;52.270;10.546;2022-12-17T09:39:03;78997.63;;;-147.06;83.30
54453;BME280;40363;52.270;10.546;2022-12-17T09:41:50;78991.47;;;-147.06;83.02
54453;BME280;40363;52.270;10.546;2022-12-17T09:44:38;78989.41;;;-147.06;82.49
54453;BME280;40363;52.270;10.546;2022-12-17T09:47:27;78981.19;;;-147.06;82.34
54453;BME280;40363;52.270;10.546;2022-12-17T09:50:14;78991.47;;;-147.06;82.08
54453;BME280;40363;52.270;10.546;2022-12-17T09:52:59;78989.41;;;-147.06;81.42
54453;BME280;40363;52.270;10.546;2022-12-17T09:55:45;79003.81;;;-147.06;81.83
54453;BME280;40363;52.270;10.546;2022-12-17T09:58:30;79009.97;;;-147.06;82.16
54453;BME280;40363;52.270;10.546;2022-12-17T10:01:18;78995.56;;;-147.06;82.37
54453;BME280;40363;52.270;10.546;2022-12-17T10:04:02;78997.63;;;-147.06;81.77
54453;BME280;40363;52.270;10.546;2022-12-17T10:06:46;78985.28;;;-147.06;81.47
54453;BME280;40363;52.270;10.546;2022-12-17T10:09:32;78968.84;;;-147.06;81.04
54453;BME280;40363;52.270;10.546;2022-12-17T10:12:18;78956.50;;;-147.06;80.37
54453;BME280;40363;52.270;10.546;2022-12-17T10:15:02;78948.28;;;-147.06;79.79
54453;BME280;40363;52.270;10.546;2022-12-17T10:17:46;78954.44;;;-147.06;79.30
54453;BME280;40363;52.270;10.546;2022-12-17T10:20:31;78948.28;;;-147.06;78.64
54453;BME280;40363;52.270;10.546;2022-12-17T10:23:31;78948.28;;;-147.06;78.42
54453;BME280;40363;52.270;10.546;2022-12-17T10:26:17;78954.44;;;-147.06;78.31
54453;BME280;40363;52.270;10.546;2022-12-17T10:29:03;78944.16;;;-147.06;78.21
54453;BME280;40363;52.270;10.546;2022-12-17T10:31:47;78946.22;;;-147.06;77.76
54453;BME280;40363;52.270;10.546;2022-12-17T10:34:34;78954.44;;;-147.06;78.04
54453;BME280;40363;52.270;10.546;2022-12-17T10:37:18;78948.28;;;-147.06;77.41
54453;BME280;40363;52.270;10.546;2022-12-17T10:40:03;78938.00;;;-147.06;77.42
54453;BME280;40363;52.270;10.546;2022-12-17T10:42:58;78931.81;;;-147.06;77.55
54453;BME280;40363;52.270;10.546;2022-12-17T10:45:42;78921.53;;;-147.06;77.87
54453;BME280;40363;52.270;10.546;2022-12-17T10:48:35;78913.31;;;-147.06;77.60
54453;BME280;40363;52.270;10.546;2022-12-17T10:51:20;78907.16;;;-147.06;77.19
54453;BME280;40363;52.270;10.546;2022-12-17T10:54:08;78892.75;;;-147.06;77.01
54453;BME280;40363;52.270;10.546;2022-12-17T10:56:53;78903.03;;;-147.06;75.34
54453;BME280;40363;52.270;10.546;2022-12-17T10:59:40;78894.81;;;-147.06;74.62
54453;BME280;40363;52.270;10.546;2022-12-17T11:02:25;78882.47;;;-147.06;74.09
54453;BME280;40363;52.270;10.546;2022-12-17T11:05:11;78868.06;;;-147.06;73.47
54453;BME280;40363;52.270;10.546;2022-12-17T11:07:55;78853.66;;;-147.06;73.63
54453;BME280;40363;52.270;10.546;2022-12-17T11:10:41;78845.44;;;-147.06;72.54
54453;BME280;40363;52.270;10.546;2022-12-17T11:13:27;78845.44;;;-147.06;71.30
54453;BME280;40363;52.270;10.546;2022-12-17T11:16:17;78847.50;;;-147.06;70.39
54453;BME280;40363;52.270;10.546;2022-12-17T11:19:05;78857.78;;;-147.06;69.47
54453;BME280;40363;52.270;10.546;2022-12-17T11:21:56;78845.44;;;-147.06;68.84
54453;BME280;40363;52.270;10.546;2022-12-17T11:24:45;78857.78;;;-147.06;68.10
54453;BME280;40363;52.270;10.546;2022-12-17T11:27:30;78845.44;;;-147.06;67.40
54453;BME280;40363;52.270;10.546;2022-12-17T11:30:16;78853.66;;;-147.06;67.36
54453;BME280;40363;52.270;10.546;2022-12-17T11:33:04;78847.50;;;-147.06;66.75
54453;BME280;40363;52.270;10.546;2022-12-17T11:35:54;78851.63;;;-147.06;65.71
54453;BME280;40363;52.270;10.546;2022-12-17T11:38:43;78839.28;;;-147.06;66.32
54453;BME280;40363;52.270;10.546;2022-12-17T11:41:33;78829.00;;;-147.06;65.59
54453;BME280;40363;52.270;10.546;2022-12-17T11:44:23;78829.00;;;-147.06;65.07
54453;BME280;40363;52.270;10.546;2022-12-17T11:47:11;78820.75;;;-147.06;65.81
54453;BME280;40363;52.270;10.546;2022-12-17T11:50:04;78826.94;;;-147.06;65.59
54453;BME280;40363;52.270;10.546;2022-12-17T11:52:54;78822.81;;;-147.06;65.73
54453;BME280;40363;52.270;10.546;2022-12-17T11:55:41;78833.09;;;-147.06;66.05
54453;BME280;40363;52.270;10.546;2022-12-17T11:58:30;78820.75;;;-147.06;65.95
54453;BME280;40363;52.270;10.546;2022-12-17T12:01:19;78816.66;;;-147.06;65.99
54453;BME280;40363;52.270;10.546;2022-12-17T12:04:25;78816.66;;;-147.06;65.04
54453;BME280;40363;52.270;10.546;2022-12-17T12:07:14;78816.66;;;-147.06;64.96
54453;BME280;40363;52.270;10.546;2022-12-17T12:10:01;78816.66;;;-147.06;65.04
54453;BME280;40363;52.270;10.546;2022-12-17T12:12:47;78812.53;;;-147.06;64.87
54453;BME280;40363;52.270;10.546;2022-12-17T12:15:35;78812.53;;;-147.06;64.35
54453;BME280;40363;52.270;10.546;2022-12-17T12:18:24;78820.75;;;-147.06;63.88
54453;BME280;40363;52.270;10.546;2022-12-17T12:21:16;78816.66;;;-147.06;64.12
54453;BME280;40363;52.270;10.546;2022-12-17T12:24:07;78820.75;;;-147.06;64.52
54453;BME280;40363;52.270;10.546;2022-12-17T12:26:57;78812.53;;;-147.06;64.52
54453;BME280;40363;52.270;10.546;2022-12-17T12:29:46;78820.75;;;-147.06;64.23
54453;BME280;40363;52.270;10.546;2022-12-17T12:32:38;78822.81;;;-147.06;63.62
54453;BME280;40363;52.270;10.546;2022-12-17T12:35:25;78818.72;;;-147.06;63.41
54453;BME280;40363;52.270;10.546;2022-12-17T12:38:11;78816.66;;;-147.06;63.60
54453;BME280;40363;52.270;10.546;2022-12-17T12:41:01;78814.59;;;-147.06;63.44
54453;BME280;40363;52.270;10.546;2022-12-17T12:43:51;78826.94;;;-147.06;63.81
54453;BME280;40363;52.270;10.546;2022-12-17T12:46:37;78822.81;;;-147.06;64.29
54453;BME280;40363;52.270;10.546;2022-12-17T12:49:24;78820.75;;;-147.06;63.74
54453;BME280;40363;52.270;10.546;2022-12-17T12:52:10;78822.81;;;-147.06;63.88
54453;BME280;40363;52.270;10.546;2022-12-17T12:54:57;78816.66;;;-147.06;64.07
54453;BME280;40363;52.270;10.546;2022-12-17T12:57:55;78812.53;;;-147.06;64.21
54453;BME280;40363;52.270;10.546;2022-12-17T13:00:49;78808.44;;;-147.06;64.26
54453;BME280;40363;52.270;10.546;2022-12-17T13:03:36;78820.75;;;-147.06;64.22
54453;BME280;40363;52.270;10.546;2022-12-17T13:09:16;78818.72;;;-147.06;63.98
54453;BME280;40363;52.270;10.546;2022-12-17T13:11:45;78822.81;;;-147.06;64.59
54453;BME280;40363;52.270;10.546;2022-12-17T13:14:14;78812.53;;;-147.06;64.27
54453;BME280;40363;52.270;10.546;2022-12-17T13:16:47;78820.75;;;-147.06;64.24
54453;BME280;40363;52.270;10.546;2022-12-17T13:19:17;78820.75;;;-147.06;63.59
54453;BME280;40363;52.270;10.546;2022-12-17T13:21:44;78812.53;;;-147.06;63.64
54453;BME280;40363;52.270;10.546;2022-12-17T13:24:11;78812.53;;;-147.06;63.69
54453;BME280;40363;52.270;10.546;2022-12-17T13:26:42;78810.47;;;-147.06;64.03
54453;BME280;40363;52.270;10.546;2022-12-17T13:29:18;78812.53;;;-147.06;63.95
54453;BME280;40363;52.270;10.546;2022-12-17T13:34:28;78833.09;;;-147.06;64.12
54453;BME280;40363;52.270;10.546;2022-12-17T13:37:02;78822.81;;;-147.06;64.39
54453;BME280;40363;52.270;10.546;2022-12-17T13:39:33;78849.56;;;-147.06;64.88
54453;BME280;40363;52.270;10.546;2022-12-17T13:42:02;78863.94;;;-147.06;64.83
54453;BME280;40363;52.270;10.546;2022-12-17T13:44:33;78870.13;;;-147.06;65.01
54453;BME280;40363;52.270;10.546;2022-12-17T13:47:01;78882.47;;;-147.06;66.08
54453;BME280;40363;52.270;10.546;2022-12-17T13:49:28;78890.69;;;-147.06;66.64
54453;BME280;40363;52.270;10.546;2022-12-17T13:52:01;78892.75;;;-147.06;66.81
54453;BME280;40363;52.270;10.546;2022-12-17T13:54:28;78896.84;;;-147.06;67.18
54453;BME280;40363;52.270;10.546;2022-12-17T13:57:04;78911.25;;;-147.06;68.21
54453;BME280;40363;52.270;10.546;2022-12-17T13:59:32;78923.59;;;-147.06;68.75
54453;BME280;40363;52.270;10.546;2022-12-17T14:01:58;78931.81;;;-147.06;68.58
54453;BME280;40363;52.270;10.546;2022-12-17T14:04:25;78940.03;;;-147.06;68.31